Time;durP1;ratioP1;P1;durP2;ratioP2;P2;SDS_P1;SDS_P2;PMS_P1;PMS_P2;Temp;Humidity;BMP_temperature;BMP_pressure;BME280_temperature;BME280_humidity;BME280_pressure;Samples;Min_cycle;Max_cycle;Signal;HPM_P1;HPM_P2
2023/11/28 00:00:09;;;;;;;18.98;9.02;;;;;;;;;;6350098;28;20060;-92
2023/11/28 00:03:11;;;;;;;22.88;12.55;;;;;;;;;;6348470;28;20047;-90
2023/11/28 00:06:18;;;;;;;28.90;14.48;;;;;;;;;;6353942;28;20044;-90
2023/11/28 00:09:21;;;;;;;15.57;11.00;;;;;;;;;;6350833;28;20071;-89
2023/11/28 00:12:24;;;;;;;16.98;9.32;;;;;;;;;;6353275;28;20055;-88
2023/11/28 00:15:26;;;;;;;15.38;9.57;;;;;;;;;;6352476;28;20067;-86
2023/11/28 00:18:28;;;;;;;14.38;9.35;;;;;;;;;;6354459;28;20099;-87
2023/11/28 00:21:34;;;;;;;16.92;10.25;;;;;;;;;;6352399;28;20063;-87
2023/11/28 00:24:37;;;;;;;13.35;10.00;;;;;;;;;;6354820;28;20052;-88
2023/11/28 00:27:42;;;;;;;14.45;9.73;;;;;;;;;;6351509;28;20063;-89
2023/11/28 00:30:44;;;;;;;16.42;10.15;;;;;;;;;;6353135;28;20075;-88
2023/11/28 00:33:47;;;;;;;17.33;10.30;;;;;;;;;;6350350;28;20052;-87
2023/11/28 00:36:52;;;;;;;18.45;10.57;;;;;;;;;;6353051;28;20374;-88
2023/11/28 00:39:55;;;;;;;15.10;10.18;;;;;;;;;;6334163;28;20048;-89
2023/11/28 00:42:58;;;;;;;16.33;9.98;;;;;;;;;;6352510;28;20390;-89
2023/11/28 00:46:00;;;;;;;16.83;9.73;;;;;;;;;;6348844;28;20124;-89
2023/11/28 00:49:06;;;;;;;17.63;10.40;;;;;;;;;;6350094;28;20082;-87
2023/11/28 00:52:10;;;;;;;16.30;9.82;;;;;;;;;;6342195;28;20055;-89
2023/11/28 00:55:12;;;;;;;19.20;11.90;;;;;;;;;;6355381;28;20546;-88
2023/11/28 00:58:14;;;;;;;19.50;11.38;;;;;;;;;;6356462;28;20051;-87
2023/11/28 01:01:17;;;;;;;16.48;11.70;;;;;;;;;;6336856;28;20047;-88
2023/11/28 01:04:20;;;;;;;17.33;11.98;;;;;;;;;;6352663;28;20078;-86
2023/11/28 01:07:24;;;;;;;18.88;12.32;;;;;;;;;;6354632;27;20059;-88
2023/11/28 01:10:26;;;;;;;;;;;;;;;;;;6358024;28;20336;-88
2023/11/28 01:13:28;;;;;;;20.67;11.93;;;;;;;;;;6356616;28;19915;-86
2023/11/28 01:16:30;;;;;;;22.05;12.93;;;;;;;;;;6355375;27;20263;-88
2023/11/28 01:19:38;;;;;;;20.73;12.75;;;;;;;;;;6344898;28;20139;-89
2023/11/28 01:22:44;;;;;;;19.77;13.27;;;;;;;;;;6355526;28;20047;-88
2023/11/28 01:25:46;;;;;;;18.90;12.35;;;;;;;;;;6357254;27;20051;-90
2023/11/28 01:28:50;;;;;;;22.13;13.85;;;;;;;;;;6335073;28;20051;-89
2023/11/28 01:31:59;;;;;;;22.50;13.05;;;;;;;;;;6354700;27;20047;-90
2023/11/28 01:35:04;;;;;;;21.65;13.93;;;;;;;;;;6354986;28;20079;-88
2023/11/28 01:38:10;;;;;;;25.48;14.82;;;;;;;;;;6355256;28;20582;-89
2023/11/28 01:41:13;;;;;;;22.80;14.27;;;;;;;;;;6345571;28;20048;-89
2023/11/28 01:44:16;;;;;;;22.58;13.88;;;;;;;;;;6356767;28;20044;-90
2023/11/28 01:47:18;;;;;;;24.60;14.73;;;;;;;;;;6337645;28;20116;-89
2023/11/28 01:50:21;;;;;;;20.85;14.23;;;;;;;;;;6356367;28;20067;-90
2023/11/28 01:53:27;;;;;;;26.45;15.40;;;;;;;;;;6355454;28;20062;-89
2023/11/28 01:56:32;;;;;;;25.73;15.45;;;;;;;;;;6355469;27;20035;-88
2023/11/28 01:59:35;;;;;;;26.85;15.20;;;;;;;;;;6343328;27;20053;-89
2023/11/28 02:02:37;;;;;;;25.65;15.75;;;;;;;;;;6357598;27;20055;-88
2023/11/28 02:05:39;;;;;;;28.23;16.38;;;;;;;;;;6356744;27;20050;-89
2023/11/28 02:08:43;;;;;;;28.92;16.20;;;;;;;;;;6356834;28;20063;-88
2023/11/28 02:11:45;;;;;;;28.87;16.47;;;;;;;;;;6356067;27;20123;-88
2023/11/28 02:14:47;;;;;;;27.33;16.83;;;;;;;;;;6355576;28;20327;-86
2023/11/28 02:17:49;;;;;;;32.75;17.85;;;;;;;;;;6355522;28;20052;-88
2023/11/28 02:20:52;;;;;;;31.88;18.48;;;;;;;;;;6353744;27;20056;-88
2023/11/28 02:23:55;;;;;;;30.52;17.67;;;;;;;;;;6356003;28;20114;-90
2023/11/28 02:26:59;;;;;;;31.52;18.27;;;;;;;;;;6336730;28;20043;-89
2023/11/28 02:30:01;;;;;;;32.47;18.27;;;;;;;;;;6354676;27;20071;-89
2023/11/28 02:33:03;;;;;;;27.85;17.70;;;;;;;;;;6353406;28;20355;-89
2023/11/28 02:36:06;;;;;;;30.33;17.05;;;;;;;;;;6354370;28;20378;-89
2023/11/28 02:39:12;;;;;;;26.65;17.15;;;;;;;;;;6352507;28;20371;-89
2023/11/28 02:42:22;;;;;;;28.15;17.05;;;;;;;;;;6355149;28;20051;-88
2023/11/28 02:45:27;;;;;;;31.05;17.65;;;;;;;;;;6354128;27;20674;-85
2023/11/28 02:48:32;;;;;;;28.73;17.70;;;;;;;;;;6354960;28;20070;-87
2023/11/28 02:51:34;;;;;;;30.42;17.30;;;;;;;;;;6355355;28;20047;-88
2023/11/28 02:54:36;;;;;;;27.77;16.77;;;;;;;;;;6335659;28;20345;-88
2023/11/28 02:57:39;;;;;;;26.77;17.05;;;;;;;;;;6352103;28;20043;-90
2023/11/28 03:00:41;;;;;;;27.80;17.20;;;;;;;;;;6356311;27;20332;-87
2023/11/28 03:03:43;;;;;;;28.95;17.20;;;;;;;;;;6351483;27;20115;-89
2023/11/28 03:06:49;;;;;;;26.70;16.33;;;;;;;;;;6351526;28;20082;-89
2023/11/28 03:09:55;;;;;;;29.70;17.13;;;;;;;;;;6327387;27;20124;-88
2023/11/28 03:12:59;;;;;;;31.00;17.38;;;;;;;;;;6326293;28;20060;-88
2023/11/28 03:16:02;;;;;;;30.17;17.80;;;;;;;;;;6296191;28;20051;-90
2023/11/28 03:19:04;;;;;;;29.27;16.95;;;;;;;;;;6355636;28;20063;-89
2023/11/28 03:22:17;;;;;;;30.85;17.15;;;;;;;;;;6351845;28;20097;-86
2023/11/28 03:25:20;;;;;;;32.88;19.13;;;;;;;;;;6354793;27;20142;-88
2023/11/28 03:28:32;;;;;;;33.05;18.75;;;;;;;;;;6354680;28;20082;-89
2023/11/28 03:31:35;;;;;;;30.80;18.10;;;;;;;;;;6351531;28;20354;-88
2023/11/28 03:34:37;;;;;;;33.67;18.33;;;;;;;;;;6334669;28;20043;-88
2023/11/28 03:37:39;;;;;;;28.90;17.17;;;;;;;;;;6340842;28;20055;-90
2023/11/28 03:40:41;;;;;;;30.95;18.30;;;;;;;;;;6351161;28;20053;-89
2023/11/28 03:43:45;;;;;;;29.63;16.27;;;;;;;;;;6334608;28;20050;-88
2023/11/28 03:46:47;;;;;;;32.30;18.27;;;;;;;;;;6353638;28;20116;-88
2023/11/28 03:49:49;;;;;;;32.50;17.40;;;;;;;;;;6343145;28;20104;-91
2023/11/28 03:52:56;;;;;;;35.45;18.55;;;;;;;;;;6353366;28;20062;-88
2023/11/28 03:56:05;;;;;;;37.63;19.15;;;;;;;;;;6353540;28;20071;-91
2023/11/28 03:59:09;;;;;;;40.25;19.95;;;;;;;;;;6350734;28;20044;-91
2023/11/28 04:02:11;;;;;;;32.20;18.58;;;;;;;;;;6352717;28;20125;-89
2023/11/28 04:05:15;;;;;;;43.03;21.23;;;;;;;;;;6353172;28;20092;-91
2023/11/28 04:08:28;;;;;;;43.63;22.33;;;;;;;;;;6353810;28;20102;-92
2023/11/28 04:11:33;;;;;;;49.53;23.65;;;;;;;;;;6353314;28;20049;-89
2023/11/28 04:14:36;;;;;;;49.55;23.35;;;;;;;;;;6352454;28;20052;-90
2023/11/28 04:17:39;;;;;;;58.70;24.80;;;;;;;;;;6349526;28;20044;-90
2023/11/28 04:20:41;;;;;;;56.30;26.08;;;;;;;;;;6352171;28;20048;-90
2023/11/28 04:23:44;;;;;;;62.22;28.15;;;;;;;;;;6348346;28;20073;-88
2023/11/28 04:26:48;;;;;;;72.75;29.75;;;;;;;;;;6350813;28;20591;-89
2023/11/28 04:29:59;;;;;;;71.10;29.85;;;;;;;;;;6342606;28;20091;-89
2023/11/28 04:33:02;;;;;;;67.63;28.75;;;;;;;;;;6335671;28;20116;-90
2023/11/28 04:36:05;;;;;;;71.47;30.00;;;;;;;;;;6356168;28;20051;-92
2023/11/28 04:39:07;;;;;;;74.65;30.88;;;;;;;;;;6359083;28;20083;-90
2023/11/28 04:42:13;;;;;;;74.65;30.25;;;;;;;;;;6356618;28;20081;-89
2023/11/28 04:45:24;;;;;;;76.75;31.30;;;;;;;;;;6356553;28;20051;-91
2023/11/28 04:48:27;;;;;;;75.93;28.67;;;;;;;;;;6341045;28;20039;-89
2023/11/28 04:51:29;;;;;;;74.82;28.85;;;;;;;;;;6356991;28;20058;-90
2023/11/28 04:54:33;;;;;;;72.43;31.00;;;;;;;;;;6339448;28;20050;-90
2023/11/28 04:57:41;;;;;;;75.55;30.33;;;;;;;;;;6333289;28;20291;-90
2023/11/28 05:00:49;;;;;;;66.78;28.55;;;;;;;;;;6354524;27;20058;-89
2023/11/28 05:03:52;;;;;;;74.05;30.08;;;;;;;;;;6355642;28;20062;-88
2023/11/28 05:07:00;;;;;;;69.90;28.77;;;;;;;;;;6359064;28;20078;-90
2023/11/28 05:10:03;;;;;;;73.18;29.15;;;;;;;;;;6325388;28;20055;-90
2023/11/28 05:16:32;;;;;;;66.63;28.98;;;;;;;;;;6341463;28;20645;-90
2023/11/28 05:19:34;;;;;;;63.47;26.90;;;;;;;;;;6354903;28;20247;-91
2023/11/28 05:22:37;;;;;;;63.03;26.38;;;;;;;;;;6355479;27;20059;-91
2023/11/28 05:25:42;;;;;;;72.53;27.92;;;;;;;;;;6356938;28;20070;-92
2023/11/28 05:28:55;;;;;;;66.28;29.08;;;;;;;;;;6353590;28;20048;-92
2023/11/28 05:31:58;;;;;;;72.50;28.80;;;;;;;;;;6355759;27;20047;-91
2023/11/28 05:35:00;;;;;;;68.95;27.90;;;;;;;;;;6353851;28;20090;-93
2023/11/28 05:38:02;;;;;;;67.05;28.20;;;;;;;;;;6354163;28;20111;-92
2023/11/28 05:41:09;;;;;;;67.72;27.83;;;;;;;;;;6355707;27;20145;-91
2023/11/28 05:44:11;;;;;;;66.72;29.75;;;;;;;;;;6351804;27;20066;-91
2023/11/28 05:47:15;;;;;;;65.57;30.00;;;;;;;;;;6356956;27;20112;-91
2023/11/28 05:50:20;;;;;;;70.40;30.00;;;;;;;;;;6336435;27;20063;-90
2023/11/28 05:53:24;;;;;;;69.18;28.40;;;;;;;;;;6357277;28;20059;-89
2023/11/28 05:56:26;;;;;;;63.47;28.75;;;;;;;;;;6356573;27;20063;-89
2023/11/28 05:59:30;;;;;;;62.15;27.65;;;;;;;;;;6345518;28;20096;-89
2023/11/28 06:02:34;;;;;;;65.90;28.40;;;;;;;;;;6355814;28;20070;-92
2023/11/28 06:05:38;;;;;;;57.97;26.93;;;;;;;;;;6353463;28;20209;-91
2023/11/28 06:08:43;;;;;;;55.20;25.45;;;;;;;;;;6355602;27;20107;-89
2023/11/28 06:11:46;;;;;;;62.28;28.55;;;;;;;;;;6352488;27;20039;-91
2023/11/28 06:14:48;;;;;;;64.38;27.75;;;;;;;;;;6355343;28;20047;-90
2023/11/28 06:17:52;;;;;;;63.40;28.85;;;;;;;;;;6352787;28;20071;-91
2023/11/28 06:20:54;;;;;;;64.50;27.33;;;;;;;;;;6346559;27;20047;-88
2023/11/28 06:23:56;;;;;;;63.00;27.27;;;;;;;;;;6352653;28;20119;-88
2023/11/28 06:26:58;;;;;;;63.83;28.58;;;;;;;;;;6355330;27;20078;-89
2023/11/28 06:30:00;;;;;;;65.32;28.95;;;;;;;;;;6355250;27;20112;-89
2023/11/28 06:33:04;;;;;;;61.65;27.80;;;;;;;;;;6355783;28;20054;-87
2023/11/28 06:36:09;;;;;;;60.38;26.98;;;;;;;;;;6354639;28;20356;-85
2023/11/28 06:39:11;;;;;;;57.38;27.08;;;;;;;;;;6336084;28;20058;-88
2023/11/28 06:42:13;;;;;;;52.75;26.02;;;;;;;;;;6355869;27;20056;-89
2023/11/28 06:45:16;;;;;;;56.40;25.77;;;;;;;;;;6349826;27;20055;-88
2023/11/28 06:48:20;;;;;;;58.22;28.35;;;;;;;;;;6353217;27;20054;-89
2023/11/28 06:51:23;;;;;;;51.38;26.35;;;;;;;;;;6350566;27;20100;-88
2023/11/28 06:54:28;;;;;;;49.63;26.05;;;;;;;;;;6321639;28;20267;-90
2023/11/28 06:57:30;;;;;;;47.15;24.83;;;;;;;;;;6354915;27;20071;-90
2023/11/28 07:00:33;;;;;;;48.17;24.08;;;;;;;;;;6355990;28;20063;-88
2023/11/28 07:03:36;;;;;;;47.33;24.50;;;;;;;;;;6355074;28;20047;-90
2023/11/28 07:06:41;;;;;;;48.40;24.37;;;;;;;;;;6354532;27;20043;-88
2023/11/28 07:09:47;;;;;;;45.85;24.63;;;;;;;;;;6353258;28;20191;-87
2023/11/28 07:12:50;;;;;;;47.97;25.15;;;;;;;;;;6354586;27;20287;-86
2023/11/28 07:15:52;;;;;;;46.92;25.10;;;;;;;;;;6353585;28;20055;-90
2023/11/28 07:18:55;;;;;;;40.65;22.77;;;;;;;;;;6355952;28;20581;-87
2023/11/28 07:21:57;;;;;;;39.05;22.05;;;;;;;;;;6351095;27;20110;-88
2023/11/28 07:24:59;;;;;;;40.15;22.70;;;;;;;;;;6353837;27;20053;-88
2023/11/28 07:28:01;;;;;;;34.03;20.70;;;;;;;;;;6353738;28;20047;-86
2023/11/28 07:31:03;;;;;;;41.05;20.88;;;;;;;;;;6355152;28;20153;-90
2023/11/28 07:37:23;;;;;;;32.97;20.23;;;;;;;;;;6351188;28;20115;-89
2023/11/28 07:40:26;;;;;;;33.90;19.35;;;;;;;;;;6354821;28;20220;-89
2023/11/28 07:43:30;;;;;;;32.90;18.67;;;;;;;;;;6317985;28;25899;-90
2023/11/28 07:46:32;;;;;;;32.17;18.52;;;;;;;;;;6352829;28;20047;-87
2023/11/28 07:49:39;;;;;;;28.55;18.20;;;;;;;;;;6353918;27;20063;-89
2023/11/28 07:52:41;;;;;;;29.98;18.23;;;;;;;;;;6354678;28;20137;-87
2023/11/28 07:55:46;;;;;;;28.58;17.58;;;;;;;;;;6353198;28;20419;-88
2023/11/28 07:58:49;;;;;;;26.60;17.95;;;;;;;;;;6354511;28;20066;-89
2023/11/28 08:01:51;;;;;;;31.23;17.42;;;;;;;;;;6355476;27;20453;-90
2023/11/28 08:05:02;;;;;;;28.95;17.73;;;;;;;;;;6359009;27;20058;-89
2023/11/28 08:08:05;;;;;;;30.90;17.83;;;;;;;;;;6359149;28;20062;-87
2023/11/28 08:11:14;;;;;;;26.88;17.00;;;;;;;;;;6360251;27;20043;-87
2023/11/28 08:14:16;;;;;;;28.15;16.83;;;;;;;;;;6340128;28;20067;-88
2023/11/28 08:17:18;;;;;;;26.80;15.63;;;;;;;;;;6358129;27;20052;-87
2023/11/28 08:20:23;;;;;;;27.45;16.75;;;;;;;;;;6359699;27;20093;-86
2023/11/28 08:23:25;;;;;;;27.08;17.52;;;;;;;;;;6358239;28;20059;-89
2023/11/28 08:26:27;;;;;;;27.88;17.83;;;;;;;;;;6357899;27;20047;-89
2023/11/28 08:29:29;;;;;;;27.73;16.88;;;;;;;;;;6350909;27;20043;-88
2023/11/28 08:32:31;;;;;;;27.73;16.40;;;;;;;;;;6359221;28;20260;-87
2023/11/28 08:35:37;;;;;;;27.05;17.60;;;;;;;;;;6355781;28;20055;-89
2023/11/28 08:38:46;;;;;;;28.92;18.08;;;;;;;;;;6332393;27;20115;-89
2023/11/28 08:41:53;;;;;;;26.33;17.52;;;;;;;;;;6347375;27;20344;-89
2023/11/28 08:44:57;;;;;;;26.98;16.75;;;;;;;;;;6339935;27;20077;-90
2023/11/28 08:48:02;;;;;;;28.10;17.20;;;;;;;;;;6357631;27;20051;-90
2023/11/28 08:51:13;;;;;;;26.60;16.75;;;;;;;;;;6357705;28;20051;-89
2023/11/28 08:54:30;;;;;;;24.83;16.42;;;;;;;;;;6354792;27;20046;-90
2023/11/28 08:57:34;;;;;;;26.13;16.58;;;;;;;;;;6356788;27;20120;-88
2023/11/28 09:00:59;;;;;;;30.10;17.25;;;;;;;;;;6338430;27;20115;-88
2023/11/28 09:07:43;;;;;;;30.95;16.00;;;;;;;;;;6339147;27;20051;-87
2023/11/28 09:10:48;;;;;;;26.98;16.77;;;;;;;;;;6353472;27;20059;-90
2023/11/28 09:17:19;;;;;;;30.10;17.33;;;;;;;;;;6292017;28;20058;-91
2023/11/28 09:24:26;;;;;;;32.33;18.77;;;;;;;;;;6336338;27;20040;-94
2023/11/28 09:27:34;;;;;;;28.15;16.92;;;;;;;;;;6335136;27;20059;-92
2023/11/28 09:34:11;;;;;;;22.33;15.25;;;;;;;;;;6310802;27;20048;-91
2023/11/28 09:37:21;;;;;;;22.00;15.55;;;;;;;;;;6355291;27;21006;-92
2023/11/28 09:40:27;;;;;;;27.98;15.70;;;;;;;;;;6348104;27;20245;-91
2023/11/28 09:43:30;;;;;;;24.55;15.15;;;;;;;;;;6306651;27;20049;-90
2023/11/28 09:46:40;;;;;;;20.80;15.07;;;;;;;;;;6328506;27;20052;-89
2023/11/28 09:49:59;;;;;;;23.50;14.88;;;;;;;;;;6355461;27;20089;-90
2023/11/28 09:53:04;;;;;;;23.08;15.43;;;;;;;;;;6330146;27;20390;-92
2023/11/28 09:56:11;;;;;;;;;;;;;;;;;;6353643;27;20063;-90
2023/11/28 09:59:22;;;;;;;19.48;14.10;;;;;;;;;;6344991;27;19931;-94
2023/11/28 10:16:46;;;;;;;22.20;14.65;;;;;;;;;;6266080;27;20066;-88
2023/11/28 10:19:57;;;;;;;17.77;13.00;;;;;;;;;;6333443;27;20059;-88
2023/11/28 10:26:39;;;;;;;19.92;13.98;;;;;;;;;;6341256;27;20052;-92
2023/11/28 10:51:39;;;;;;;18.25;11.73;;;;;;;;;;6251374;28;20039;-93
2023/11/28 11:01:52;;;;;;;19.40;10.73;;;;;;;;;;6194092;28;20063;-91
2023/11/28 11:11:43;;;;;;;18.42;9.82;;;;;;;;;;6296910;28;20081;-92
2023/11/28 11:18:27;;;;;;;16.50;8.82;;;;;;;;;;6310625;28;20051;-92
2023/11/28 11:30:26;;;;;;;12.73;8.65;;;;;;;;;;6027812;29;20360;-92
2023/11/28 11:33:35;;;;;;;14.10;8.95;;;;;;;;;;6052897;29;20076;-93
2023/11/28 11:37:16;;;;;;;12.45;8.02;;;;;;;;;;6034982;29;20049;-90
2023/11/28 11:40:37;;;;;;;14.30;8.55;;;;;;;;;;6078929;29;20051;-91
2023/11/28 11:43:41;;;;;;;13.38;8.30;;;;;;;;;;6088743;29;20055;-88
2023/11/28 11:50:51;;;;;;;15.30;8.77;;;;;;;;;;6164312;28;20054;-92
2023/11/28 11:53:56;;;;;;;13.43;8.73;;;;;;;;;;6155874;28;20066;-94
2023/11/28 11:56:58;;;;;;;13.75;8.43;;;;;;;;;;6131003;28;20504;-93
2023/11/28 12:00:00;;;;;;;14.02;8.57;;;;;;;;;;6170381;28;20220;-93
2023/11/28 12:03:04;;;;;;;12.93;8.05;;;;;;;;;;6313637;28;20055;-94
2023/11/28 12:06:08;;;;;;;;;;;;;;;;;;6329888;28;20591;-93
2023/11/28 12:09:12;;;;;;;14.77;8.15;;;;;;;;;;6328834;28;19961;-92
2023/11/28 12:12:15;;;;;;;10.85;7.75;;;;;;;;;;6317542;28;20103;-93
2023/11/28 12:21:52;;;;;;;13.75;7.80;;;;;;;;;;6276327;28;20052;-92
2023/11/28 12:24:57;;;;;;;13.57;8.10;;;;;;;;;;6331151;28;20077;-93
2023/11/28 12:28:00;;;;;;;16.13;8.13;;;;;;;;;;6338205;28;20062;-91
2023/11/28 12:31:02;;;;;;;11.43;7.72;;;;;;;;;;6354657;28;20054;-91
2023/11/28 12:34:05;;;;;;;16.63;8.45;;;;;;;;;;6353492;28;20057;-91
2023/11/28 12:37:09;;;;;;;12.63;7.40;;;;;;;;;;6355750;28;20051;-91
2023/11/28 12:40:12;;;;;;;10.98;7.68;;;;;;;;;;6309819;28;20213;-93
2023/11/28 12:46:38;;;;;;;11.85;6.90;;;;;;;;;;6345913;28;20067;-93
2023/11/28 12:49:42;;;;;;;13.15;7.43;;;;;;;;;;6354497;28;20043;-93
2023/11/28 12:52:44;;;;;;;8.48;6.50;;;;;;;;;;6338108;27;20236;-93
2023/11/28 12:55:50;;;;;;;14.48;7.68;;;;;;;;;;6358452;27;20045;-92
2023/11/28 12:58:52;;;;;;;10.95;7.22;;;;;;;;;;6357755;28;20054;-94
2023/11/28 13:01:54;;;;;;;10.52;7.13;;;;;;;;;;6358927;27;20287;-91
2023/11/28 13:08:35;;;;;;;14.05;8.23;;;;;;;;;;6332540;27;20078;-92
2023/11/28 13:11:37;;;;;;;12.85;8.30;;;;;;;;;;6354883;28;20055;-91
2023/11/28 13:14:43;;;;;;;11.00;8.02;;;;;;;;;;6350138;28;20250;-92
2023/11/28 13:18:10;;;;;;;12.30;7.50;;;;;;;;;;6325688;27;20115;-92
2023/11/28 13:28:08;;;;;;;14.45;8.88;;;;;;;;;;6338254;27;20177;-92
2023/11/28 13:34:59;;;;;;;10.88;7.68;;;;;;;;;;6323762;27;20128;-92
2023/11/28 13:38:09;;;;;;;11.07;7.18;;;;;;;;;;6326396;28;20051;-92
2023/11/28 13:41:13;;;;;;;10.80;7.22;;;;;;;;;;6355071;28;20284;-93
2023/11/28 13:44:16;;;;;;;12.05;7.15;;;;;;;;;;6353460;28;20362;-93
2023/11/28 13:47:21;;;;;;;11.25;7.22;;;;;;;;;;6359053;28;20260;-92
2023/11/28 13:50:26;;;;;;;8.25;6.35;;;;;;;;;;6357047;27;20067;-91
2023/11/28 13:57:03;;;;;;;11.05;6.50;;;;;;;;;;6342149;27;20043;-93
2023/11/28 14:00:26;;;;;;;9.55;7.00;;;;;;;;;;6352058;27;20059;-91
2023/11/28 14:03:47;;;;;;;12.23;7.63;;;;;;;;;;6329632;27;20132;-93
2023/11/28 14:07:03;;;;;;;11.27;7.50;;;;;;;;;;6357231;27;20052;-93
2023/11/28 14:10:10;;;;;;;11.70;7.45;;;;;;;;;;6353497;27;20055;-92
2023/11/28 14:16:39;;;;;;;12.73;7.78;;;;;;;;;;6343720;27;20340;-92
2023/11/28 14:19:48;;;;;;;10.95;7.68;;;;;;;;;;6342956;27;20048;-93
2023/11/28 14:22:57;;;;;;;14.65;7.25;;;;;;;;;;6353872;28;20055;-93
2023/11/28 14:26:03;;;;;;;11.77;7.45;;;;;;;;;;6354008;27;20122;-93
2023/11/28 14:29:06;;;;;;;14.05;8.07;;;;;;;;;;6334141;28;20056;-93
2023/11/28 14:32:13;;;;;;;12.55;7.53;;;;;;;;;;6352888;28;20353;-92
2023/11/28 14:35:17;;;;;;;12.95;7.55;;;;;;;;;;6350861;28;20366;-92
2023/11/28 14:38:22;;;;;;;11.75;7.38;;;;;;;;;;6352323;27;20055;-92
2023/11/28 14:41:28;;;;;;;14.10;7.97;;;;;;;;;;6335814;27;20078;-92
2023/11/28 14:44:31;;;;;;;10.23;7.32;;;;;;;;;;6337751;28;20060;-92
2023/11/28 14:47:36;;;;;;;11.57;8.07;;;;;;;;;;6354552;28;20075;-91
2023/11/28 14:50:44;;;;;;;11.52;7.60;;;;;;;;;;6354013;28;20217;-92
2023/11/28 14:53:46;;;;;;;12.32;7.82;;;;;;;;;;6341262;27;20134;-92
2023/11/28 15:00:16;;;;;;;12.85;7.97;;;;;;;;;;6309821;28;20058;-92
2023/11/28 15:06:44;;;;;;;11.95;7.93;;;;;;;;;;6351902;28;20097;-92
2023/11/28 15:09:46;;;;;;;15.10;8.10;;;;;;;;;;6304161;28;20055;-92
2023/11/28 15:12:52;;;;;;;12.32;8.15;;;;;;;;;;6334405;28;20058;-92
2023/11/28 15:15:55;;;;;;;14.57;8.68;;;;;;;;;;6334081;28;20070;-93
2023/11/28 15:18:57;;;;;;;14.60;9.02;;;;;;;;;;6353277;28;20059;-92
2023/11/28 15:22:00;;;;;;;13.05;8.90;;;;;;;;;;6343712;28;20056;-93
2023/11/28 15:28:27;;;;;;;11.63;8.50;;;;;;;;;;6322112;28;20051;-93
2023/11/28 15:31:30;;;;;;;15.80;9.85;;;;;;;;;;6311806;28;20057;-92
2023/11/28 15:34:38;;;;;;;17.17;9.10;;;;;;;;;;6309373;28;20116;-92
2023/11/28 15:37:40;;;;;;;17.52;8.43;;;;;;;;;;6308489;28;20062;-90
2023/11/28 15:40:44;;;;;;;19.70;9.82;;;;;;;;;;6324173;28;20052;-90
2023/11/28 15:43:48;;;;;;;19.20;9.85;;;;;;;;;;6327813;28;20046;-90
2023/11/28 15:46:52;;;;;;;13.52;8.88;;;;;;;;;;6325027;28;20047;-91
2023/11/28 15:49:55;;;;;;;15.00;10.40;;;;;;;;;;6306821;28;20066;-89
2023/11/28 15:52:57;;;;;;;17.17;9.43;;;;;;;;;;6326854;28;20048;-90
2023/11/28 15:59:17;;;;;;;14.50;9.43;;;;;;;;;;6293665;28;20275;-88
2023/11/28 16:02:20;;;;;;;17.23;10.52;;;;;;;;;;6312133;28;20363;-92
2023/11/28 16:08:40;;;;;;;16.40;10.07;;;;;;;;;;6321646;28;20090;-89
2023/11/28 16:11:44;;;;;;;15.52;10.23;;;;;;;;;;6326785;28;20078;-91
2023/11/28 16:18:03;;;;;;;17.52;10.55;;;;;;;;;;6296211;28;20106;-88
2023/11/28 16:21:05;;;;;;;18.73;10.57;;;;;;;;;;6327296;28;20142;-89
2023/11/28 16:24:09;;;;;;;16.17;10.18;;;;;;;;;;6334120;28;20112;-90
2023/11/28 16:27:19;;;;;;;20.98;11.70;;;;;;;;;;6333415;28;20060;-89
2023/11/28 16:30:22;;;;;;;17.17;10.40;;;;;;;;;;6295157;28;20051;-89
2023/11/28 16:33:27;;;;;;;20.02;10.63;;;;;;;;;;6333970;28;20044;-88
2023/11/28 16:36:29;;;;;;;19.85;12.00;;;;;;;;;;6315100;28;20160;-92
2023/11/28 16:39:35;;;;;;;20.58;12.20;;;;;;;;;;6332954;28;20947;-89
2023/11/28 16:45:58;;;;;;;19.67;11.68;;;;;;;;;;6225182;28;20058;-90
2023/11/28 16:49:00;;;;;;;19.20;12.45;;;;;;;;;;6333397;28;20040;-90
2023/11/28 16:52:02;;;;;;;18.95;12.30;;;;;;;;;;6326513;28;20099;-89
2023/11/28 16:55:07;;;;;;;20.90;12.63;;;;;;;;;;6316992;28;20056;-90
2023/11/28 16:58:09;;;;;;;20.58;13.60;;;;;;;;;;6285970;28;20534;-90
2023/11/28 17:01:14;;;;;;;24.27;13.20;;;;;;;;;;6315406;28;20054;-90
2023/11/28 17:04:16;;;;;;;20.25;12.95;;;;;;;;;;6315278;28;20067;-90
2023/11/28 17:07:18;;;;;;;20.20;12.65;;;;;;;;;;6331654;28;20055;-89
2023/11/28 17:10:23;;;;;;;20.00;13.10;;;;;;;;;;6332383;28;20139;-89
2023/11/28 17:13:25;;;;;;;;;;;;;;;;;;6333811;28;20132;-88
2023/11/28 17:16:37;;;;;;;19.15;11.80;;;;;;;;;;6331794;28;19936;-89
2023/11/28 17:19:59;;;;;;;17.10;10.38;;;;;;;;;;6307034;28;20044;-90
2023/11/28 17:23:01;;;;;;;15.25;8.57;;;;;;;;;;6334050;28;20067;-92
2023/11/28 17:26:03;;;;;;;14.35;7.75;;;;;;;;;;6329230;28;20101;-92
2023/11/28 17:29:05;;;;;;;16.48;8.57;;;;;;;;;;6345373;28;20058;-91
2023/11/28 17:32:14;;;;;;;14.68;8.43;;;;;;;;;;6355927;27;20057;-92
2023/11/28 17:35:17;;;;;;;12.48;7.85;;;;;;;;;;6326745;28;20051;-92
2023/11/28 17:38:20;;;;;;;16.80;8.70;;;;;;;;;;6324519;27;20047;-91
2023/11/28 17:41:23;;;;;;;16.75;9.80;;;;;;;;;;6357254;28;20063;-91
2023/11/28 17:44:25;;;;;;;16.52;9.65;;;;;;;;;;6354580;27;20138;-92
2023/11/28 17:50:45;;;;;;;16.27;10.07;;;;;;;;;;6345782;28;20050;-92
2023/11/28 17:53:52;;;;;;;14.20;9.65;;;;;;;;;;6338622;28;20046;-89
2023/11/28 18:00:17;;;;;;;17.92;9.00;;;;;;;;;;6358076;27;20093;-91
2023/11/28 18:07:41;;;;;;;11.05;7.35;;;;;;;;;;6201306;28;20043;-91
2023/11/28 18:10:44;;;;;;;10.90;6.93;;;;;;;;;;6208258;28;20048;-91
2023/11/28 18:13:49;;;;;;;11.02;6.38;;;;;;;;;;6220843;28;20136;-92
2023/11/28 18:16:55;;;;;;;9.48;5.88;;;;;;;;;;6228878;28;20352;-92
2023/11/28 18:19:59;;;;;;;10.52;5.30;;;;;;;;;;6245617;28;20049;-92
2023/11/28 18:23:01;;;;;;;8.38;4.57;;;;;;;;;;6246747;28;20104;-92
2023/11/28 18:26:04;;;;;;;8.88;4.65;;;;;;;;;;6249205;28;20065;-92
2023/11/28 18:29:11;;;;;;;7.07;3.45;;;;;;;;;;6232410;28;20128;-92
2023/11/28 18:46:55;;;;;;;3.75;2.08;;;;;;;;;;6234816;28;20070;-94
2023/11/28 18:50:03;;;;;;;4.43;2.05;;;;;;;;;;6255361;28;20126;-96
2023/11/28 18:57:05;;;;;;;3.53;1.98;;;;;;;;;;6270773;28;20346;-93
2023/11/28 19:00:28;;;;;;;7.85;2.08;;;;;;;;;;6301070;28;20049;-93
2023/11/28 19:03:33;;;;;;;4.47;2.15;;;;;;;;;;6302061;28;20076;-93
2023/11/28 19:06:37;;;;;;;5.13;2.15;;;;;;;;;;6300118;28;20048;-95
2023/11/28 19:09:42;;;;;;;3.85;1.90;;;;;;;;;;6291858;28;20116;-92
2023/11/28 19:12:49;;;;;;;4.03;2.10;;;;;;;;;;6300638;28;20056;-91
2023/11/28 19:16:02;;;;;;;3.35;1.75;;;;;;;;;;6284348;28;20056;-91
2023/11/28 19:19:25;;;;;;;5.95;1.95;;;;;;;;;;6305278;28;20063;-92
2023/11/28 19:22:27;;;;;;;5.72;1.58;;;;;;;;;;6353074;28;20051;-91
2023/11/28 19:25:29;;;;;;;3.72;2.15;;;;;;;;;;6353605;27;20049;-91
2023/11/28 19:28:34;;;;;;;3.17;1.40;;;;;;;;;;6336436;28;20252;-92
2023/11/28 19:31:39;;;;;;;5.63;1.90;;;;;;;;;;6344299;28;20471;-90
2023/11/28 19:34:54;;;;;;;2.70;1.60;;;;;;;;;;6353993;27;20052;-90
2023/11/28 19:37:59;;;;;;;3.70;1.70;;;;;;;;;;6334829;28;20062;-92
2023/11/28 19:41:40;;;;;;;4.47;1.98;;;;;;;;;;6334531;28;20292;-92
2023/11/28 19:44:44;;;;;;;2.90;1.52;;;;;;;;;;6353994;27;20043;-93
2023/11/28 19:48:06;;;;;;;;;;;;;;;;;;6331042;28;20059;-92
2023/11/28 19:51:09;;;;;;;3.28;1.35;;;;;;;;;;6353912;28;19924;-90
2023/11/28 19:54:11;;;;;;;2.38;1.55;;;;;;;;;;6349863;28;20226;-89
2023/11/28 19:57:14;;;;;;;3.30;1.58;;;;;;;;;;6353728;27;20059;-90
2023/11/28 20:00:18;;;;;;;3.30;1.57;;;;;;;;;;6348690;28;20071;-90
2023/11/28 20:03:21;;;;;;;1.63;1.08;;;;;;;;;;6334066;28;20055;-89
2023/11/28 20:06:26;;;;;;;3.00;1.40;;;;;;;;;;6341385;28;20081;-89
2023/11/28 20:20:14;;;;;;;2.88;1.27;;;;;;;;;;6322539;27;20335;-88
2023/11/28 20:23:16;;;;;;;3.15;1.50;;;;;;;;;;6348337;28;20263;-89
2023/11/28 20:26:19;;;;;;;4.68;1.20;;;;;;;;;;6349879;28;20259;-88
2023/11/28 20:38:49;;;;;;;3.97;1.63;;;;;;;;;;6253961;28;20120;-89
2023/11/28 20:45:14;;;;;;;3.55;1.40;;;;;;;;;;6250496;28;20045;-89
2023/11/28 20:48:39;;;;;;;3.75;1.52;;;;;;;;;;6225182;28;20061;-89
2023/11/28 20:51:48;;;;;;;4.57;1.90;;;;;;;;;;6296952;28;20044;-88
2023/11/28 20:58:48;;;;;;;2.63;1.70;;;;;;;;;;6262904;28;20203;-88
2023/11/28 21:01:51;;;;;;;4.07;1.92;;;;;;;;;;6258278;28;20049;-89
2023/11/28 21:04:53;;;;;;;3.92;1.70;;;;;;;;;;6312692;28;20044;-88
2023/11/28 21:07:56;;;;;;;3.60;1.80;;;;;;;;;;6321950;28;20101;-89
2023/11/28 21:10:59;;;;;;;2.85;1.77;;;;;;;;;;6306310;28;20260;-88
2023/11/28 21:14:03;;;;;;;3.47;1.50;;;;;;;;;;6322343;28;20274;-87
2023/11/28 21:17:05;;;;;;;3.33;1.70;;;;;;;;;;6323610;28;20052;-88
2023/11/28 21:20:08;;;;;;;3.20;1.13;;;;;;;;;;6324306;28;20055;-87
2023/11/28 21:23:13;;;;;;;2.88;1.48;;;;;;;;;;6328420;28;20052;-87
2023/11/28 21:26:15;;;;;;;2.70;1.25;;;;;;;;;;6322961;28;20056;-88
2023/11/28 21:29:20;;;;;;;1.73;1.13;;;;;;;;;;6322563;28;20052;-88